createdAt,value
2022-08-07T00:00:41.045Z,1012.99
2022-08-07T00:03:14.023Z,1012.98
2022-08-07T00:05:46.999Z,1012.98
2022-08-07T00:08:20.026Z,1012.97
2022-08-07T00:10:57.442Z,1012.95
2022-08-07T00:13:26.923Z,1012.94
2022-08-07T00:15:59.054Z,1012.93
2022-08-07T00:18:32.057Z,1012.93
2022-08-07T00:21:08.301Z,1012.94
2022-08-07T00:23:39.557Z,1012.93
2022-08-07T00:26:18.519Z,1012.91
2022-08-07T00:28:45.979Z,1012.89
2022-08-07T00:31:17.874Z,1012.87
2022-08-07T00:33:50.051Z,1012.85
2022-08-07T00:36:23.026Z,1012.82
2022-08-07T00:38:56.033Z,1012.81
2022-08-07T00:41:29.009Z,1012.81
2022-08-07T00:44:02.973Z,1012.79
2022-08-07T00:46:35.083Z,1012.77
2022-08-07T00:49:08.048Z,1012.76
2022-08-07T00:51:57.141Z,1012.74
2022-08-07T00:54:14.087Z,1012.72
2022-08-07T00:56:49.804Z,1012.71
2022-08-07T00:59:35.068Z,1012.70
2022-08-07T01:01:53.125Z,1012.70
2022-08-07T01:04:26.090Z,1012.70
2022-08-07T01:06:59.095Z,1012.68
2022-08-07T01:10:04.133Z,1012.67
2022-08-07T01:12:29.045Z,1012.68
2022-08-07T01:14:38.099Z,1012.67
2022-08-07T01:17:11.092Z,1012.66
2022-08-07T01:19:44.408Z,1012.67
2022-08-07T01:22:22.870Z,1012.67
2022-08-07T01:24:50.110Z,1012.66
2022-08-07T01:27:23.118Z,1012.67
2022-08-07T01:29:56.142Z,1012.69
2022-08-07T01:32:29.144Z,1012.70
2022-08-07T01:35:02.415Z,1012.72
2022-08-07T01:37:36.136Z,1012.73
2022-08-07T01:40:14.774Z,1012.74
2022-08-07T01:42:58.685Z,1012.76
2022-08-07T01:45:17.752Z,1012.78
2022-08-07T01:48:21.486Z,1012.78
2022-08-07T01:50:28.653Z,1012.78
2022-08-07T01:52:55.022Z,1012.79
2022-08-07T01:55:27.139Z,1012.78
2022-08-07T01:58:06.921Z,1012.77
2022-08-07T02:00:33.169Z,1012.76
2022-08-07T02:03:11.942Z,1012.75
2022-08-07T02:05:48.407Z,1012.75
2022-08-07T02:08:14.017Z,1012.74
2022-08-07T02:10:48.771Z,1012.73
2022-08-07T02:13:18.177Z,1012.71
2022-08-07T02:15:53.148Z,1012.71
2022-08-07T02:18:25.886Z,1012.71
2022-08-07T02:20:57.503Z,1012.71
2022-08-07T02:23:30.204Z,1012.69
2022-08-07T02:26:30.538Z,1012.69
2022-08-07T02:28:36.181Z,1012.68
2022-08-07T02:31:28.555Z,1012.66
2022-08-07T02:34:03.206Z,1012.63
2022-08-07T02:36:30.618Z,1012.61
2022-08-07T02:38:50.618Z,1012.59
2022-08-07T02:41:21.900Z,1012.56
2022-08-07T02:43:57.212Z,1012.54
2022-08-07T02:46:30.215Z,1012.53
2022-08-07T02:49:03.405Z,1012.53
2022-08-07T02:51:49.847Z,1012.50
2022-08-07T02:54:09.244Z,1012.51
2022-08-07T02:56:42.227Z,1012.50
2022-08-07T02:59:15.254Z,1012.48
2022-08-07T03:01:52.165Z,1012.47
2022-08-07T03:04:21.268Z,1012.47
2022-08-07T03:06:54.270Z,1012.46
2022-08-07T03:09:44.603Z,1012.43
2022-08-07T03:12:02.913Z,1012.42
2022-08-07T03:14:33.332Z,1012.42
2022-08-07T03:17:06.276Z,1012.44
2022-08-07T03:19:39.319Z,1012.45
2022-08-07T03:22:19.135Z,1012.45
2022-08-07T03:24:45.276Z,1012.45
2022-08-07T03:27:30.028Z,1012.45
2022-08-07T03:29:51.469Z,1012.45
2022-08-07T03:32:24.336Z,1012.42
2022-08-07T03:35:16.633Z,1012.41
2022-08-07T03:37:32.502Z,1012.41
2022-08-07T03:40:15.940Z,1012.39
2022-08-07T03:42:38.332Z,1012.39
2022-08-07T03:45:11.318Z,1012.37
2022-08-07T03:47:48.182Z,1012.35
2022-08-07T03:50:17.320Z,1012.36
2022-08-07T03:52:50.331Z,1012.37
2022-08-07T03:55:23.274Z,1012.36
2022-08-07T03:59:07.457Z,1012.38
2022-08-07T04:00:33.429Z,1012.38
2022-08-07T04:03:03.980Z,1012.39
2022-08-07T04:05:40.811Z,1012.41
2022-08-07T04:08:08.363Z,1012.41
2022-08-07T04:10:42.427Z,1012.44
2022-08-07T04:13:15.110Z,1012.45
2022-08-07T04:15:48.918Z,1012.47
2022-08-07T04:18:56.816Z,1012.46
2022-08-07T04:20:54.374Z,1012.47
2022-08-07T04:23:43.422Z,1012.47
2022-08-07T04:25:59.382Z,1012.48
2022-08-07T04:28:32.377Z,1012.49
2022-08-07T04:31:05.435Z,1012.51
2022-08-07T04:33:38.409Z,1012.51
2022-08-07T04:36:11.369Z,1012.52
2022-08-07T04:38:44.397Z,1012.52
2022-08-07T04:41:19.055Z,1012.54
2022-08-07T04:44:11.862Z,1012.55
2022-08-07T04:46:25.938Z,1012.57
2022-08-07T04:48:56.406Z,1012.59
2022-08-07T04:51:29.431Z,1012.62
2022-08-07T04:54:06.028Z,1012.66
2022-08-07T04:58:14.032Z,1012.67
2022-08-07T04:59:17.461Z,1012.69
2022-08-07T05:01:41.418Z,1012.71
2022-08-07T05:04:17.251Z,1012.73
2022-08-07T05:06:51.541Z,1012.73
2022-08-07T05:09:27.992Z,1012.75
2022-08-07T05:11:58.627Z,1012.75
2022-08-07T05:14:52.666Z,1012.76
2022-08-07T05:16:59.460Z,1012.77
2022-08-07T05:19:44.077Z,1012.79
2022-08-07T05:22:05.414Z,1012.82
2022-08-07T05:24:39.547Z,1012.83
2022-08-07T05:27:23.440Z,1012.85
2022-08-07T05:29:52.144Z,1012.86
2022-08-07T05:32:17.460Z,1012.88
2022-08-07T05:34:50.465Z,1012.91
2022-08-07T05:37:25.270Z,1012.94
2022-08-07T05:40:05.820Z,1012.96
2022-08-07T05:42:34.729Z,1012.99
2022-08-07T05:45:14.192Z,1013.03
2022-08-07T05:47:38.094Z,1013.05
2022-08-07T05:50:08.181Z,1013.08
2022-08-07T05:52:41.274Z,1013.09
2022-08-07T05:55:14.868Z,1013.10
2022-08-07T05:57:47.316Z,1013.11
2022-08-07T06:00:20.324Z,1013.12
2022-08-07T06:02:53.627Z,1013.13
2022-08-07T06:05:28.660Z,1013.13
2022-08-07T06:08:13.284Z,1013.14
2022-08-07T06:10:34.270Z,1013.15
2022-08-07T06:13:07.327Z,1013.15
2022-08-07T06:15:42.695Z,1013.17
2022-08-07T06:18:14.080Z,1013.18
2022-08-07T06:20:50.228Z,1013.21
2022-08-07T06:23:45.754Z,1013.22
2022-08-07T06:25:54.782Z,1013.23
2022-08-07T06:28:27.542Z,1013.22
2022-08-07T06:30:58.696Z,1013.20
2022-08-07T06:33:33.198Z,1013.20
2022-08-07T06:36:06.536Z,1013.20
2022-08-07T06:38:37.573Z,1013.21
2022-08-07T06:41:13.217Z,1013.20
2022-08-07T06:43:46.674Z,1013.20
2022-08-07T06:46:31.155Z,1013.21
2022-08-07T06:48:50.354Z,1013.20
2022-08-07T06:51:31.005Z,1013.20
2022-08-07T06:55:27.919Z,1013.18
2022-08-07T06:56:29.638Z,1013.17
2022-08-07T07:00:13.313Z,1013.14
2022-08-07T07:01:43.726Z,1013.14
2022-08-07T07:04:28.007Z,1013.13
2022-08-07T07:07:00.088Z,1013.12
2022-08-07T07:09:14.592Z,1013.12
2022-08-07T07:12:08.990Z,1013.13
2022-08-07T07:14:21.775Z,1013.12
2022-08-07T07:16:53.523Z,1013.12
2022-08-07T07:19:55.342Z,1013.12
2022-08-07T07:22:05.410Z,1013.11
2022-08-07T07:24:32.620Z,1013.11
2022-08-07T07:27:05.331Z,1013.10
2022-08-07T07:29:57.514Z,1013.11
2022-08-07T07:32:11.651Z,1013.09
2022-08-07T07:34:44.643Z,1013.08
2022-08-07T07:37:44.350Z,1013.08
2022-08-07T07:39:54.408Z,1013.09
2022-08-07T07:42:25.816Z,1013.07
2022-08-07T07:44:56.385Z,1013.06
2022-08-07T07:47:29.427Z,1013.04
2022-08-07T07:50:35.772Z,1013.03
2022-08-07T07:52:35.386Z,1013.03
2022-08-07T07:55:08.343Z,1013.02
2022-08-07T07:57:52.103Z,1012.98
2022-08-07T08:00:20.787Z,1012.96
2022-08-07T08:02:49.222Z,1012.94
2022-08-07T08:05:20.380Z,1012.92
2022-08-07T08:08:00.921Z,1012.90
2022-08-07T08:10:37.946Z,1012.88
2022-08-07T08:13:00.184Z,1012.85
2022-08-07T08:15:57.497Z,1012.83
2022-08-07T08:18:17.570Z,1012.83
2022-08-07T08:20:38.481Z,1012.83
2022-08-07T08:23:11.462Z,1012.81
2022-08-07T08:25:49.084Z,1012.80
2022-08-07T08:28:23.802Z,1012.79
2022-08-07T08:30:51.050Z,1012.79
2022-08-07T08:33:23.574Z,1012.79
2022-08-07T08:35:56.435Z,1012.77
2022-08-07T08:38:31.779Z,1012.77
2022-08-07T08:41:02.855Z,1012.77
2022-08-07T08:43:42.031Z,1012.73
2022-08-07T08:46:08.729Z,1012.73
2022-08-07T08:48:41.425Z,1012.71
2022-08-07T08:51:26.146Z,1012.70
2022-08-07T08:53:47.743Z,1012.70
2022-08-07T08:56:24.386Z,1012.70
2022-08-07T08:58:54.451Z,1012.70
2022-08-07T09:01:30.025Z,1012.67
2022-08-07T09:03:59.769Z,1012.66
2022-08-07T09:06:32.488Z,1012.63
2022-08-07T09:09:13.427Z,1012.61
2022-08-07T09:11:43.539Z,1012.60
2022-08-07T09:14:11.506Z,1012.58
2022-08-07T09:16:45.643Z,1012.54
2022-08-07T09:19:52.283Z,1012.51
2022-08-07T09:22:10.354Z,1012.50
2022-08-07T09:24:30.927Z,1012.48
2022-08-07T09:26:57.172Z,1012.46
2022-08-07T09:30:03.417Z,1012.44
2022-08-07T09:32:02.803Z,1012.42
2022-08-07T09:34:35.802Z,1012.39
2022-08-07T09:37:08.830Z,1012.37
2022-08-07T09:39:53.769Z,1012.35
2022-08-07T09:42:17.259Z,1012.32
2022-08-07T09:47:25.582Z,1012.30
2022-08-07T09:47:52.259Z,1012.28
2022-08-07T09:50:02.148Z,1012.24
2022-08-07T09:52:34.257Z,1012.22
2022-08-07T09:54:59.818Z,1012.17
2022-08-07T09:57:32.894Z,1012.14
2022-08-07T10:00:05.806Z,1012.10
2022-08-07T10:02:38.805Z,1012.05
2022-08-07T10:05:12.477Z,1012.01
2022-08-07T10:07:52.957Z,1011.99
2022-08-07T10:10:21.638Z,1011.94
2022-08-07T10:12:52.914Z,1011.90
2022-08-07T10:15:23.912Z,1011.85
2022-08-07T10:18:00.921Z,1011.82
2022-08-07T10:20:30.591Z,1011.78
2022-08-07T10:23:02.918Z,1011.73
2022-08-07T10:25:43.028Z,1011.71
2022-08-07T10:28:08.892Z,1011.65
2022-08-07T10:30:41.686Z,1011.64
2022-08-07T10:33:15.292Z,1011.61
2022-08-07T10:35:56.499Z,1011.59
2022-08-07T10:38:42.357Z,1011.55
2022-08-07T10:40:53.969Z,1011.51
2022-08-07T10:43:34.067Z,1011.49
2022-08-07T10:45:59.992Z,1011.46
2022-08-07T10:48:34.969Z,1011.44
2022-08-07T10:51:05.865Z,1011.40
2022-08-07T10:53:44.350Z,1011.36
2022-08-07T10:56:31.072Z,1011.33
2022-08-07T10:58:46.093Z,1011.32
2022-08-07T11:01:18.024Z,1011.31
2022-08-07T11:03:54.911Z,1011.29
2022-08-07T11:06:24.030Z,1011.27
2022-08-07T11:08:56.958Z,1011.25
2022-08-07T11:11:29.904Z,1011.23
2022-08-07T11:14:44.756Z,1011.19
2022-08-07T11:16:35.950Z,1011.19
2022-08-07T11:19:08.969Z,1011.18
2022-08-07T11:21:42.968Z,1011.15
2022-08-07T11:24:16.861Z,1011.13
2022-08-07T11:26:51.960Z,1011.10
2022-08-07T11:29:41.972Z,1011.05
2022-08-07T11:31:58.043Z,1011.02
2022-08-07T11:34:30.663Z,1010.99
2022-08-07T11:37:04.010Z,1010.97
2022-08-07T11:39:59.441Z,1010.95
2022-08-07T11:42:16.849Z,1010.93
2022-08-07T11:44:52.442Z,1010.91
2022-08-07T11:47:16.026Z,1010.90
2022-08-07T11:50:18.775Z,1010.88
2022-08-07T11:52:29.217Z,1010.86
2022-08-07T11:54:57.060Z,1010.82
2022-08-07T11:58:00.690Z,1010.81
2022-08-07T12:00:12.653Z,1010.81
2022-08-07T12:02:35.729Z,1010.81
2022-08-07T12:05:28.287Z,1010.80
2022-08-07T12:07:42.287Z,1010.80
2022-08-07T12:10:15.026Z,1010.80
2022-08-07T12:12:48.006Z,1010.79
2022-08-07T12:15:46.703Z,1010.76
2022-08-07T12:17:57.810Z,1010.73
2022-08-07T12:20:30.855Z,1010.72
2022-08-07T12:23:00.056Z,1010.70
2022-08-07T12:26:21.984Z,1010.68
2022-08-07T12:28:10.370Z,1010.66
2022-08-07T12:30:38.787Z,1010.66
2022-08-07T12:33:18.691Z,1010.64
2022-08-07T12:35:48.200Z,1010.60
2022-08-07T12:38:36.871Z,1010.58
2022-08-07T12:40:51.246Z,1010.57
2022-08-07T12:44:02.069Z,1010.57
2022-08-07T12:45:57.160Z,1010.58
2022-08-07T12:48:41.590Z,1010.54
2022-08-07T12:51:12.916Z,1010.51
2022-08-07T12:54:03.104Z,1010.48
2022-08-07T12:56:09.504Z,1010.47
2022-08-07T12:58:43.993Z,1010.45
2022-08-07T13:01:15.259Z,1010.44
2022-08-07T13:03:55.035Z,1010.43
2022-08-07T13:06:26.832Z,1010.42
2022-08-07T13:08:54.105Z,1010.42
2022-08-07T13:11:27.098Z,1010.42
2022-08-07T13:14:00.143Z,1010.42
2022-08-07T13:16:33.142Z,1010.40
2022-08-07T13:19:05.800Z,1010.38
2022-08-07T13:21:58.929Z,1010.35
2022-08-07T13:24:12.127Z,1010.33
2022-08-07T13:26:46.379Z,1010.29
2022-08-07T13:29:19.283Z,1010.26
2022-08-07T13:31:57.227Z,1010.24
2022-08-07T13:34:32.872Z,1010.21
2022-08-07T13:37:00.198Z,1010.19
2022-08-07T13:40:32.871Z,1010.17
2022-08-07T13:42:06.161Z,1010.13
2022-08-07T13:44:39.161Z,1010.11
2022-08-07T13:47:15.959Z,1010.08
2022-08-07T13:50:32.784Z,1010.06
2022-08-07T13:52:32.107Z,1010.03
2022-08-07T13:54:51.164Z,1010.02
2022-08-07T13:57:24.419Z,1010.00
2022-08-07T13:59:57.202Z,1009.99
2022-08-07T14:02:39.543Z,1010.00
2022-08-07T14:05:03.202Z,1009.97
2022-08-07T14:07:36.185Z,1009.94
2022-08-07T14:10:16.432Z,1009.92
2022-08-07T14:12:42.200Z,1009.87
2022-08-07T14:15:15.317Z,1009.83
2022-08-07T14:18:24.256Z,1009.78
2022-08-07T14:20:42.076Z,1009.77
2022-08-07T14:22:54.318Z,1009.75
2022-08-07T14:25:29.388Z,1009.72
2022-08-07T14:28:11.544Z,1009.70
2022-08-07T14:30:33.405Z,1009.67
2022-08-07T14:33:07.229Z,1009.64
2022-08-07T14:35:45.738Z,1009.61
2022-08-07T14:40:49.525Z,1009.56
2022-08-07T14:43:55.412Z,1009.55
2022-08-07T14:45:54.762Z,1009.54
2022-08-07T14:48:27.215Z,1009.53
2022-08-07T14:50:58.230Z,1009.53
2022-08-07T14:53:49.987Z,1009.51
2022-08-07T14:56:04.238Z,1009.49
2022-08-07T14:58:37.305Z,1009.47
2022-08-07T15:01:22.667Z,1009.45
2022-08-07T15:03:52.340Z,1009.43
2022-08-07T15:06:16.258Z,1009.42
2022-08-07T15:08:53.124Z,1009.42
2022-08-07T15:11:53.359Z,1009.42
2022-08-07T15:13:55.344Z,1009.40
2022-08-07T15:16:33.848Z,1009.38
2022-08-07T15:19:01.318Z,1009.35
2022-08-07T15:21:44.920Z,1009.33
2022-08-07T15:25:14.673Z,1009.32
2022-08-07T15:26:40.242Z,1009.29
2022-08-07T15:30:09.207Z,1009.28
2022-08-07T15:31:57.720Z,1009.27
2022-08-07T15:34:19.313Z,1009.25
2022-08-07T15:39:25.383Z,1009.23
2022-08-07T15:42:45.707Z,1009.21
2022-08-07T15:44:31.377Z,1009.21
2022-08-07T15:47:08.971Z,1009.20
2022-08-07T15:50:06.461Z,1009.19
2022-08-07T15:52:13.838Z,1009.16
2022-08-07T15:54:44.070Z,1009.15
2022-08-07T15:57:27.904Z,1009.12
2022-08-07T15:59:50.384Z,1009.11
2022-08-07T16:02:27.359Z,1009.08
2022-08-07T16:04:56.347Z,1009.07
2022-08-07T16:07:32.050Z,1009.06
2022-08-07T16:10:03.356Z,1009.05
2022-08-07T16:12:38.058Z,1009.03
2022-08-07T16:15:09.374Z,1009.02
2022-08-07T16:18:02.588Z,1008.98
2022-08-07T16:20:34.022Z,1008.98
2022-08-07T16:22:55.314Z,1008.96
2022-08-07T16:25:22.984Z,1008.94
2022-08-07T16:27:57.162Z,1008.93
2022-08-07T16:30:30.499Z,1008.91
2022-08-07T16:33:00.354Z,1008.90
2022-08-07T16:35:58.871Z,1008.89
2022-08-07T16:38:09.534Z,1008.87
2022-08-07T16:40:57.405Z,1008.87
2022-08-07T16:43:12.391Z,1008.85
2022-08-07T16:46:47.136Z,1008.87
2022-08-07T16:48:28.692Z,1008.88
2022-08-07T16:51:21.706Z,1008.88
2022-08-07T16:54:01.412Z,1008.88
2022-08-07T16:56:01.415Z,1008.90
2022-08-07T16:59:02.357Z,1008.89
2022-08-07T17:01:07.778Z,1008.89
2022-08-07T17:03:59.371Z,1008.90
2022-08-07T17:06:29.362Z,1008.89
2022-08-07T17:11:20.486Z,1008.88
2022-08-07T17:14:18.977Z,1008.88
2022-08-07T17:16:26.450Z,1008.88
2022-08-07T17:18:59.532Z,1008.86
2022-08-07T17:21:50.675Z,1008.85
2022-08-07T17:24:05.579Z,1008.83
2022-08-07T17:26:50.133Z,1008.83
2022-08-07T17:30:13.093Z,1008.85
2022-08-07T17:32:02.621Z,1008.85
2022-08-07T17:34:34.671Z,1008.86
2022-08-07T17:36:59.845Z,1008.87
2022-08-07T17:39:23.626Z,1008.88
2022-08-07T17:42:04.558Z,1008.89
2022-08-07T17:44:43.909Z,1008.90
2022-08-07T17:47:02.505Z,1008.89
2022-08-07T17:49:44.728Z,1008.91
2022-08-07T17:52:12.651Z,1008.93
2022-08-07T17:54:54.068Z,1008.94
2022-08-07T17:57:18.814Z,1008.95
2022-08-07T17:59:51.423Z,1008.96
2022-08-07T18:02:24.498Z,1008.98
2022-08-07T18:04:57.571Z,1008.98
2022-08-07T18:07:34.424Z,1008.99
2022-08-07T18:10:05.555Z,1009.01
2022-08-07T18:12:37.342Z,1009.03
2022-08-07T18:15:10.224Z,1009.03
2022-08-07T18:18:47.013Z,1009.06
2022-08-07T18:21:09.411Z,1009.08
2022-08-07T18:22:49.517Z,1009.10
2022-08-07T18:25:39.407Z,1009.12
2022-08-07T18:27:55.367Z,1009.15
2022-08-07T18:30:32.456Z,1009.16
2022-08-07T18:33:10.787Z,1009.18
2022-08-07T18:35:51.461Z,1009.20
2022-08-07T18:38:56.298Z,1009.22
2022-08-07T18:40:50.250Z,1009.24
2022-08-07T18:43:15.076Z,1009.26
2022-08-07T18:46:25.316Z,1009.28
2022-08-07T18:50:05.309Z,1009.31
2022-08-07T18:50:52.301Z,1009.32
2022-08-07T18:53:39.283Z,1009.33
2022-08-07T18:55:58.273Z,1009.35
2022-08-07T18:58:31.642Z,1009.36
2022-08-07T19:01:05.020Z,1009.36
2022-08-07T19:03:38.938Z,1009.37
2022-08-07T19:06:10.295Z,1009.38
2022-08-07T19:08:43.351Z,1009.40
2022-08-07T19:11:36.268Z,1009.43
2022-08-07T19:13:50.263Z,1009.45
2022-08-07T19:17:04.275Z,1009.48
2022-08-07T19:18:55.347Z,1009.52
2022-08-07T19:21:47.574Z,1009.56
2022-08-07T19:24:03.322Z,1009.59
2022-08-07T19:28:28.357Z,1009.63
2022-08-07T19:31:06.451Z,1009.66
2022-08-07T19:32:07.918Z,1009.71
2022-08-07T19:34:15.478Z,1009.74
2022-08-07T19:36:51.780Z,1009.79
2022-08-07T19:39:27.959Z,1009.82
2022-08-07T19:42:08.059Z,1009.87
2022-08-07T19:44:31.366Z,1009.90
2022-08-07T19:47:00.442Z,1009.96
2022-08-07T19:49:57.722Z,1009.99
2022-08-07T19:52:06.344Z,1010.03
2022-08-07T19:54:55.730Z,1010.06
2022-08-07T19:58:00.368Z,1010.08
2022-08-07T19:59:45.386Z,1010.10
2022-08-07T20:02:19.813Z,1010.13
2022-08-07T20:04:51.880Z,1010.16
2022-08-07T20:07:26.947Z,1010.16
2022-08-07T20:10:36.797Z,1010.17
2022-08-07T20:12:34.988Z,1010.17
2022-08-07T20:15:03.570Z,1010.18
2022-08-07T20:17:38.804Z,1010.18
2022-08-07T20:20:09.766Z,1010.22
2022-08-07T20:22:42.725Z,1010.23
2022-08-07T20:25:19.612Z,1010.25
2022-08-07T20:27:58.672Z,1010.27
2022-08-07T20:30:22.358Z,1010.28
2022-08-07T20:32:54.435Z,1010.29
2022-08-07T20:35:27.703Z,1010.30
2022-08-07T20:38:00.840Z,1010.31
2022-08-07T20:40:34.912Z,1010.31
2022-08-07T20:43:09.646Z,1010.32
2022-08-07T20:46:26.518Z,1010.32
2022-08-07T20:48:12.786Z,1010.33
2022-08-07T20:50:45.524Z,1010.32
2022-08-07T20:53:18.811Z,1010.31
2022-08-07T20:55:51.541Z,1010.29
2022-08-07T20:58:28.285Z,1010.26
2022-08-07T21:00:57.467Z,1010.25
2022-08-07T21:03:30.844Z,1010.23
2022-08-07T21:06:03.709Z,1010.21
2022-08-07T21:08:39.267Z,1010.21
2022-08-07T21:11:10.905Z,1010.21
2022-08-07T21:13:43.674Z,1010.19
2022-08-07T21:16:15.577Z,1010.19
2022-08-07T21:18:50.520Z,1010.18
2022-08-07T21:21:21.541Z,1010.17
2022-08-07T21:23:54.593Z,1010.15
2022-08-07T21:26:29.038Z,1010.15
2022-08-07T21:29:00.506Z,1010.14
2022-08-07T21:32:42.043Z,1010.15
2022-08-07T21:34:06.890Z,1010.15
2022-08-07T21:36:40.149Z,1010.15
2022-08-07T21:39:46.128Z,1010.14
2022-08-07T21:41:52.062Z,1010.15
2022-08-07T21:44:25.403Z,1010.16
2022-08-07T21:46:51.873Z,1010.14
2022-08-07T21:49:25.691Z,1010.13
2022-08-07T21:51:57.941Z,1010.12
2022-08-07T21:54:30.887Z,1010.11
2022-08-07T21:57:03.856Z,1010.10
2022-08-07T22:00:04.404Z,1010.09
2022-08-07T22:02:12.722Z,1010.08
2022-08-07T22:04:51.352Z,1010.08
2022-08-07T22:07:15.637Z,1010.08
2022-08-07T22:09:54.485Z,1010.08
2022-08-07T22:12:27.071Z,1010.08
2022-08-07T22:14:59.817Z,1010.07
2022-08-07T22:17:27.884Z,1010.07
2022-08-07T22:20:00.951Z,1010.07
2022-08-07T22:22:34.296Z,1010.07
2022-08-07T22:25:07.615Z,1010.07
2022-08-07T22:28:07.852Z,1010.08
2022-08-07T22:30:12.917Z,1010.09
2022-08-07T22:32:45.894Z,1010.11
2022-08-07T22:35:18.958Z,1010.14
2022-08-07T22:38:04.423Z,1010.15
2022-08-07T22:40:24.938Z,1010.17
2022-08-07T22:42:58.243Z,1010.19
2022-08-07T22:46:40.417Z,1010.20
2022-08-07T22:48:03.967Z,1010.20
2022-08-07T22:50:36.982Z,1010.21
2022-08-07T22:53:09.917Z,1010.23
2022-08-07T22:55:42.922Z,1010.24
2022-08-07T22:58:15.983Z,1010.27
2022-08-07T23:00:48.937Z,1010.27
2022-08-07T23:03:23.955Z,1010.27
2022-08-07T23:06:08.274Z,1010.27
2022-08-07T23:08:30.650Z,1010.27
2022-08-07T23:11:00.964Z,1010.26
2022-08-07T23:13:48.713Z,1010.26
2022-08-07T23:16:13.060Z,1010.26
2022-08-07T23:18:42.413Z,1010.24
2022-08-07T23:21:16.300Z,1010.24
2022-08-07T23:24:05.534Z,1010.24
2022-08-07T23:26:19.014Z,1010.24
2022-08-07T23:28:54.609Z,1010.24
2022-08-07T23:32:50.197Z,1010.25
2022-08-07T23:34:34.504Z,1010.25
2022-08-07T23:36:30.973Z,1010.25
2022-08-07T23:39:04.877Z,1010.23
2022-08-07T23:42:01.875Z,1010.21
2022-08-07T23:44:10.034Z,1010.22
2022-08-07T23:46:43.277Z,1010.21
2022-08-07T23:49:16.045Z,1010.21
2022-08-07T23:53:01.378Z,1010.21
2022-08-07T23:54:36.177Z,1010.21
2022-08-07T23:56:55.059Z,1010.21
